createdAt,value
2023-02-01T00:00:10.628Z,18.80
2023-02-01T00:02:51.137Z,14.50
2023-02-01T00:05:51.174Z,14.90
2023-02-01T00:08:23.031Z,14.30
2023-02-01T00:11:03.003Z,14.70
2023-02-01T00:13:34.686Z,20.10
2023-02-01T00:16:22.129Z,11.60
2023-02-01T00:18:51.613Z,21.20
2023-02-01T00:24:17.260Z,15.70
2023-02-01T00:26:46.774Z,13.10
2023-02-01T00:29:23.535Z,10.80
2023-02-01T00:31:53.460Z,17.70
2023-02-01T00:37:33.547Z,22.10
2023-02-01T00:40:01.982Z,14.90
2023-02-01T00:42:32.950Z,14.80
2023-02-01T00:45:04.884Z,14.70
2023-02-01T00:47:36.257Z,15.80
2023-02-01T00:50:07.491Z,12.70
2023-02-01T00:52:38.552Z,16.00
2023-02-01T00:55:08.066Z,21.40
2023-02-01T00:57:37.192Z,18.50
2023-02-01T01:00:07.208Z,23.50
2023-02-01T01:02:36.538Z,24.40
2023-02-01T01:05:09.020Z,17.70
2023-02-01T01:07:38.727Z,13.60
2023-02-01T01:10:10.671Z,12.40
2023-02-01T01:12:42.435Z,14.80
2023-02-01T01:15:13.496Z,11.50
2023-02-01T01:17:44.146Z,10.50
2023-02-01T01:20:16.042Z,19.20
2023-02-01T01:22:45.148Z,19.70
2023-02-01T01:25:15.360Z,12.70
2023-02-01T01:27:45.496Z,16.20
2023-02-01T01:30:14.471Z,14.80
2023-02-01T01:32:44.622Z,20.10
2023-02-01T01:35:13.887Z,13.40
2023-02-01T01:37:42.396Z,18.70
2023-02-01T01:40:13.299Z,18.60
2023-02-01T01:42:46.241Z,17.30
2023-02-01T01:45:30.531Z,20.50
2023-02-01T01:48:27.752Z,15.40
2023-02-01T01:51:00.101Z,16.60
2023-02-01T01:53:32.959Z,14.50
2023-02-01T01:56:01.984Z,16.60
2023-02-01T01:58:35.374Z,16.70
2023-02-01T02:01:07.485Z,14.10
2023-02-01T02:03:47.305Z,16.00
2023-02-01T02:06:33.834Z,17.20
2023-02-01T02:09:05.964Z,16.50
2023-02-01T02:11:35.633Z,13.40
2023-02-01T02:14:07.616Z,20.20
2023-02-01T02:17:12.770Z,12.90
2023-02-01T02:19:50.360Z,18.60
2023-02-01T02:22:55.406Z,12.90
2023-02-01T02:25:46.780Z,20.00
2023-02-01T02:28:31.497Z,28.90
2023-02-01T02:31:03.331Z,21.40
2023-02-01T02:33:37.203Z,18.90
2023-02-01T02:37:00.686Z,19.20
2023-02-01T02:39:29.340Z,11.30
2023-02-01T02:42:37.773Z,16.50
2023-02-01T02:45:32.966Z,23.00
2023-02-01T02:48:11.841Z,20.90
2023-02-01T02:51:07.011Z,28.10
2023-02-01T02:54:07.076Z,24.60
2023-02-01T02:56:53.983Z,22.80
2023-02-01T02:59:42.080Z,26.40
2023-02-01T03:02:29.680Z,19.00
2023-02-01T03:04:58.442Z,23.70
2023-02-01T03:07:56.427Z,25.10
2023-02-01T03:10:55.933Z,19.70
2023-02-01T03:13:40.233Z,29.30
2023-02-01T03:16:22.500Z,20.10
2023-02-01T03:19:02.022Z,23.90
2023-02-01T03:21:41.631Z,25.80
2023-02-01T03:26:55.882Z,27.20
2023-02-01T03:29:28.537Z,32.30
2023-02-01T03:31:57.796Z,31.70
2023-02-01T03:34:26.648Z,24.20
2023-02-01T03:37:01.125Z,24.80
2023-02-01T03:40:01.092Z,25.70
2023-02-01T03:42:42.215Z,24.90
2023-02-01T03:45:17.952Z,27.90
2023-02-01T03:47:49.656Z,27.00
2023-02-01T03:50:21.336Z,27.50
2023-02-01T03:53:28.096Z,29.40
2023-02-01T03:56:00.979Z,25.00
2023-02-01T03:58:32.989Z,32.20
2023-02-01T04:01:02.164Z,41.30
2023-02-01T04:03:35.780Z,39.70
2023-02-01T04:06:04.380Z,29.30
2023-02-01T04:08:36.828Z,26.00
2023-02-01T04:11:05.437Z,29.40
2023-02-01T04:13:35.069Z,25.20
2023-02-01T04:16:03.756Z,34.20
2023-02-01T04:18:37.147Z,36.90
2023-02-01T04:23:36.350Z,30.80
2023-02-01T04:26:05.589Z,27.70
2023-02-01T04:31:08.286Z,32.90
2023-02-01T04:33:38.947Z,29.20
2023-02-01T04:36:07.529Z,30.40
2023-02-01T04:38:36.420Z,36.00
2023-02-01T04:41:05.627Z,33.00
2023-02-01T04:43:35.370Z,48.10
2023-02-01T04:46:03.828Z,41.40
2023-02-01T04:48:32.386Z,36.50
2023-02-01T04:51:01.189Z,37.90
2023-02-01T04:53:31.063Z,43.70
2023-02-01T04:56:03.504Z,38.30
2023-02-01T04:58:32.684Z,43.10
2023-02-01T05:01:05.963Z,40.70
2023-02-01T05:03:37.647Z,48.60
2023-02-01T05:06:07.029Z,46.40
2023-02-01T05:08:37.784Z,43.90
2023-02-01T05:13:51.307Z,39.80
2023-02-01T05:16:20.217Z,34.90
2023-02-01T05:18:51.238Z,42.30
2023-02-01T05:21:21.421Z,36.10
2023-02-01T05:24:09.885Z,33.40
2023-02-01T05:26:41.999Z,35.20
2023-02-01T05:29:11.077Z,30.20
2023-02-01T05:31:39.715Z,32.60
2023-02-01T05:34:09.484Z,34.40
2023-02-01T05:36:40.455Z,31.90
2023-02-01T05:39:13.363Z,45.50
2023-02-01T05:41:42.494Z,34.40
2023-02-01T05:44:14.139Z,41.80
2023-02-01T05:46:45.505Z,40.00
2023-02-01T08:55:24.873Z,32.00
2023-02-01T08:57:53.749Z,27.20
2023-02-01T09:00:21.521Z,31.30
2023-02-01T09:02:48.970Z,30.30
2023-02-01T09:05:18.799Z,27.30
2023-02-01T09:07:47.496Z,20.90
2023-02-01T09:10:33.523Z,24.50
2023-02-01T09:13:03.648Z,24.70
2023-02-01T09:18:04.949Z,29.60
2023-02-01T09:20:33.716Z,28.40
2023-02-01T09:23:02.702Z,28.00
2023-02-01T09:25:37.993Z,22.30
2023-02-01T09:28:07.268Z,24.70
2023-02-01T09:30:37.276Z,29.40
2023-02-01T09:33:05.176Z,22.00
2023-02-01T09:35:32.999Z,16.00
2023-02-01T09:38:00.515Z,20.20
2023-02-01T09:40:29.856Z,19.00
2023-02-01T09:43:20.596Z,17.40
2023-02-01T09:46:03.090Z,18.20
2023-02-01T09:48:37.607Z,21.80
2023-02-01T09:51:13.571Z,16.60
2023-02-01T09:53:45.389Z,18.00
2023-02-01T09:56:15.958Z,14.80
2023-02-01T09:58:46.165Z,23.70
2023-02-01T10:01:32.930Z,27.80
2023-02-01T10:04:08.327Z,19.30
2023-02-01T10:06:48.987Z,15.10
2023-02-01T10:09:34.569Z,15.00
2023-02-01T10:12:21.403Z,18.30
2023-02-01T10:15:22.872Z,14.50
2023-02-01T10:18:12.869Z,17.80
2023-02-01T10:20:56.220Z,15.80
2023-02-01T10:24:03.546Z,20.90
2023-02-01T10:26:43.547Z,16.90
2023-02-01T10:29:23.204Z,18.00
2023-02-01T10:31:53.267Z,20.80
2023-02-01T10:34:29.645Z,19.10
2023-02-01T10:37:13.431Z,12.00
2023-02-01T10:39:41.438Z,16.00
2023-02-01T10:42:12.515Z,18.40
2023-02-01T10:44:45.887Z,18.20
2023-02-01T10:47:19.992Z,15.80
2023-02-01T10:50:01.533Z,16.40
2023-02-01T10:52:34.731Z,22.50
2023-02-01T10:55:31.388Z,22.60
2023-02-01T10:58:01.949Z,17.90
2023-02-01T11:00:44.345Z,18.30
2023-02-01T11:03:33.695Z,18.40
2023-02-01T11:06:10.974Z,20.00
2023-02-01T11:09:02.550Z,23.30
2023-02-01T11:11:34.413Z,14.60
2023-02-01T11:14:20.895Z,21.90
2023-02-01T11:16:54.734Z,15.90
2023-02-01T11:19:24.233Z,22.50
2023-02-01T11:21:54.323Z,16.10
2023-02-01T11:24:35.379Z,17.40
2023-02-01T11:27:07.144Z,20.50
2023-02-01T11:29:43.194Z,19.40
2023-02-01T11:32:10.933Z,18.40
2023-02-01T11:34:53.549Z,19.70
2023-02-01T11:37:35.093Z,23.50
2023-02-01T11:40:20.720Z,20.20
2023-02-01T11:43:00.196Z,15.60
2023-02-01T11:45:29.880Z,13.20
2023-02-01T11:47:58.836Z,19.50
2023-02-01T11:50:36.519Z,19.60
2023-02-01T11:53:39.127Z,14.20
2023-02-01T11:56:09.770Z,14.70
2023-02-01T11:59:18.870Z,19.50
2023-02-01T12:02:11.268Z,14.40
2023-02-01T12:04:52.260Z,16.60
2023-02-01T12:07:57.408Z,16.20
2023-02-01T12:10:51.988Z,17.30
2023-02-01T12:13:32.729Z,17.30
2023-02-01T12:22:27.748Z,24.60
2023-02-01T12:25:24.508Z,23.40
2023-02-01T12:28:14.073Z,18.90
2023-02-01T12:31:08.353Z,18.60
2023-02-01T12:33:48.899Z,22.30
2023-02-01T12:37:08.789Z,22.00
2023-02-01T12:39:42.850Z,22.90
2023-02-01T12:42:32.823Z,16.60
2023-02-01T12:45:12.154Z,21.70
2023-02-01T12:47:47.824Z,19.60
2023-02-01T12:50:38.773Z,21.40
2023-02-01T12:53:21.134Z,17.20
2023-02-01T12:55:56.569Z,18.40
2023-02-01T12:58:49.367Z,23.90
2023-02-01T13:01:23.130Z,26.50
2023-02-01T13:04:12.029Z,23.40
2023-02-01T13:07:08.926Z,22.30
2023-02-01T13:09:47.636Z,31.90
2023-02-01T13:12:30.608Z,23.30
2023-02-01T13:15:11.870Z,23.50
2023-02-01T13:20:26.377Z,21.90
2023-02-01T13:22:58.415Z,21.20
2023-02-01T13:26:00.544Z,21.10
2023-02-01T13:28:41.198Z,21.40
2023-02-01T13:31:20.768Z,22.80
2023-02-01T13:34:26.606Z,29.00
2023-02-01T13:37:30.121Z,19.50
2023-02-01T17:59:19.739Z,51.30
2023-02-01T18:01:49.766Z,42.10
2023-02-01T18:04:16.956Z,38.00
2023-02-01T18:06:44.772Z,46.70
2023-02-01T18:09:15.416Z,43.40
2023-02-01T18:11:42.385Z,38.30
2023-02-01T18:14:15.435Z,41.70
2023-02-01T18:16:42.818Z,33.40
2023-02-01T18:19:10.212Z,40.60
2023-02-01T18:21:40.707Z,36.70
2023-02-01T18:24:14.768Z,31.10
2023-02-01T18:26:45.469Z,29.90
2023-02-01T18:29:12.521Z,31.90
2023-02-01T18:31:51.514Z,40.90
2023-02-01T18:34:23.382Z,42.90
2023-02-01T18:39:22.372Z,29.50
2023-02-01T18:41:51.281Z,31.90
2023-02-01T18:44:26.128Z,46.60
2023-02-01T18:46:56.452Z,39.50
2023-02-01T18:49:23.634Z,39.80
2023-02-01T18:51:52.662Z,33.20
2023-02-01T18:54:24.430Z,37.20
2023-02-01T18:56:54.600Z,40.90
2023-02-01T18:59:21.860Z,35.20
2023-02-01T19:01:49.843Z,33.70
2023-02-01T19:04:24.416Z,36.10
2023-02-01T19:06:53.507Z,31.40
2023-02-01T19:09:23.267Z,38.30
2023-02-01T19:11:51.117Z,32.20
2023-02-01T19:14:18.225Z,32.70
2023-02-01T19:16:48.509Z,35.30
2023-02-01T19:19:18.763Z,33.10
2023-02-01T19:21:47.143Z,36.00
2023-02-01T19:24:15.235Z,27.00
2023-02-01T19:26:47.828Z,33.30
2023-02-01T19:29:16.528Z,34.40
2023-02-01T19:31:47.499Z,25.70
2023-02-01T19:34:21.353Z,28.20
2023-02-01T19:36:58.616Z,25.30
2023-02-01T19:39:26.127Z,31.70
2023-02-01T19:41:53.797Z,31.30
2023-02-01T19:44:22.205Z,35.10
2023-02-01T19:46:51.422Z,42.20
2023-02-01T19:49:19.902Z,32.40
2023-02-01T19:51:49.593Z,29.10
2023-02-01T19:54:18.970Z,29.20
2023-02-01T19:56:50.934Z,32.30
2023-02-01T19:59:19.029Z,23.70
2023-02-01T20:01:54.252Z,40.00
2023-02-01T20:04:25.933Z,29.70
2023-02-01T20:06:55.604Z,27.20
2023-02-01T20:09:24.472Z,33.90
2023-02-01T20:11:54.615Z,39.00
2023-02-01T20:14:26.863Z,31.40
2023-02-01T20:16:54.000Z,40.50
2023-02-01T20:19:22.809Z,35.00
2023-02-01T20:21:51.831Z,83.00
2023-02-01T20:24:24.014Z,73.70
2023-02-01T20:26:53.741Z,56.00
2023-02-01T20:29:23.673Z,56.20
2023-02-01T20:31:51.020Z,44.70
2023-02-01T20:34:20.679Z,33.20
2023-02-01T20:36:49.259Z,32.90
2023-02-01T20:39:17.951Z,36.80
2023-02-01T20:41:45.398Z,35.70
2023-02-01T20:44:12.451Z,32.30
2023-02-01T20:46:41.920Z,28.00
2023-02-01T20:49:10.194Z,27.40
2023-02-01T20:51:42.339Z,29.60
2023-02-01T20:54:18.067Z,32.30
2023-02-01T20:56:46.536Z,39.70
2023-02-01T20:59:16.592Z,21.50
2023-02-01T21:02:06.793Z,29.80
2023-02-01T21:04:38.101Z,23.70
2023-02-01T21:07:05.908Z,36.60
2023-02-01T21:09:33.446Z,31.30
2023-02-01T21:12:10.062Z,27.40
2023-02-01T21:14:38.062Z,35.50
2023-02-01T21:17:06.913Z,37.20
2023-02-01T21:19:43.099Z,46.50
2023-02-01T21:22:11.403Z,47.10
2023-02-01T21:24:41.215Z,30.10
2023-02-01T21:27:08.947Z,38.20
2023-02-01T21:29:41.770Z,33.30
2023-02-01T21:32:09.645Z,30.20
2023-02-01T21:34:36.787Z,25.30
2023-02-01T21:37:05.465Z,29.50
2023-02-01T21:39:32.539Z,30.70
2023-02-01T21:42:17.728Z,35.00
2023-02-01T21:44:48.139Z,24.00
2023-02-01T21:47:18.161Z,36.50
2023-02-01T21:49:45.901Z,34.80
2023-02-01T21:52:14.753Z,32.70
2023-02-01T21:54:43.108Z,32.30
2023-02-01T21:57:12.219Z,35.70
2023-02-01T21:59:40.578Z,29.50
2023-02-01T22:02:14.613Z,46.10
2023-02-01T22:04:42.642Z,31.50
2023-02-01T22:07:10.292Z,37.30
2023-02-01T22:09:37.518Z,27.50
2023-02-01T22:12:06.876Z,37.80
2023-02-01T22:14:34.758Z,37.30
2023-02-01T22:17:02.699Z,28.40
2023-02-01T22:19:31.753Z,28.90
2023-02-01T22:21:59.461Z,26.90
2023-02-01T22:24:26.696Z,30.60
2023-02-01T22:26:54.868Z,32.10
2023-02-01T22:29:23.277Z,29.90
2023-02-01T22:31:52.443Z,29.70
2023-02-01T22:34:21.735Z,18.50
2023-02-01T22:36:49.077Z,23.90
2023-02-01T22:39:17.312Z,20.40
2023-02-01T22:41:45.128Z,24.20
2023-02-01T22:44:12.205Z,25.30
2023-02-01T22:46:40.873Z,19.90
2023-02-01T22:49:07.804Z,20.50
2023-02-01T22:51:36.191Z,20.40
2023-02-01T22:54:05.754Z,28.50
2023-02-01T22:56:36.352Z,21.50
2023-02-01T22:59:05.210Z,19.90
2023-02-01T23:01:33.467Z,38.70
2023-02-01T23:04:02.862Z,37.40
2023-02-01T23:06:31.754Z,29.40
2023-02-01T23:09:05.599Z,19.20
2023-02-01T23:11:34.140Z,19.90
2023-02-01T23:14:01.560Z,19.80
2023-02-01T23:16:28.765Z,44.00
2023-02-01T23:18:56.290Z,26.10
2023-02-01T23:21:23.452Z,21.70
2023-02-01T23:23:58.095Z,20.70
2023-02-01T23:26:26.740Z,11.10
2023-02-01T23:28:55.909Z,17.50
2023-02-01T23:31:24.588Z,21.90
2023-02-01T23:33:56.121Z,19.40
2023-02-01T23:36:24.081Z,22.80
2023-02-01T23:38:51.366Z,21.50
2023-02-01T23:41:19.297Z,20.30
2023-02-01T23:43:58.631Z,25.40
2023-02-01T23:46:35.691Z,17.80
2023-02-01T23:49:04.398Z,27.20
2023-02-01T23:51:33.284Z,21.70
2023-02-01T23:57:37.745Z,20.40
